Time;durP1;ratioP1;P1;durP2;ratioP2;P2;SDS_P1;SDS_P2;PMS_P1;PMS_P2;Temp;Humidity;BMP_temperature;BMP_pressure;BME280_temperature;BME280_humidity;BME280_pressure;Samples;Min_cycle;Max_cycle;Signal;HPM_P1;HPM_P2
2023/08/01 00:00:34;;;;;;;9.80;3.40;;;14.20;99.90;;;;;;6226148;23;20329;-66
2023/08/01 00:03:00;;;;;;;8.85;3.80;;;14.20;99.90;;;;;;6226801;23;20008;-65
2023/08/01 00:05:25;;;;;;;13.00;4.38;;;14.10;99.90;;;;;;6223442;23;20012;-66
2023/08/01 00:07:52;;;;;;;10.85;4.25;;;14.10;99.90;;;;;;6222804;23;20062;-66
2023/08/01 00:10:18;;;;;;;11.15;3.63;;;14.10;99.90;;;;;;6223324;23;20010;-66
2023/08/01 00:12:44;;;;;;;9.68;4.18;;;14.10;99.90;;;;;;6227300;23;20016;-65
2023/08/01 00:15:10;;;;;;;9.25;3.85;;;14.10;99.90;;;;;;6226028;23;20083;-66
2023/08/01 00:17:35;;;;;;;10.45;3.83;;;14.20;99.90;;;;;;6226092;23;20379;-66
2023/08/01 00:20:02;;;;;;;10.75;3.67;;;14.20;99.90;;;;;;6224348;23;20178;-66
2023/08/01 00:22:28;;;;;;;7.70;3.83;;;14.10;99.90;;;;;;6226904;23;20075;-66
2023/08/01 00:24:53;;;;;;;7.95;3.80;;;14.20;99.90;;;;;;6223175;23;20027;-66
2023/08/01 00:27:19;;;;;;;9.70;4.07;;;14.10;99.90;;;;;;6223256;23;20456;-66
2023/08/01 00:29:45;;;;;;;11.13;3.90;;;14.10;99.90;;;;;;6198148;23;20043;-67
2023/08/01 00:32:11;;;;;;;12.95;3.80;;;14.10;99.90;;;;;;6226571;23;20016;-66
2023/08/01 00:34:37;;;;;;;10.55;4.07;;;14.10;99.90;;;;;;6224938;23;20463;-66
2023/08/01 00:37:02;;;;;;;9.18;4.00;;;14.00;99.90;;;;;;6226155;23;20008;-66
2023/08/01 00:39:28;;;;;;;8.35;3.72;;;14.00;99.90;;;;;;6225711;23;20078;-66
2023/08/01 00:41:53;;;;;;;10.95;4.15;;;14.00;99.90;;;;;;6226687;23;20121;-66
2023/08/01 00:44:19;;;;;;;11.27;4.00;;;14.00;99.90;;;;;;6226310;23;20007;-66
2023/08/01 00:46:45;;;;;;;9.57;3.80;;;14.00;99.90;;;;;;6226525;23;20094;-66
2023/08/01 00:49:11;;;;;;;12.05;4.43;;;14.00;99.90;;;;;;6224560;23;20004;-66
2023/08/01 00:51:37;;;;;;;8.45;3.65;;;14.00;99.90;;;;;;6225458;23;20093;-67
2023/08/01 00:54:02;;;;;;;10.70;3.80;;;14.00;99.90;;;;;;6227563;23;20010;-66
2023/08/01 00:56:28;;;;;;;8.43;3.92;;;14.10;99.90;;;;;;6228835;23;20012;-66
2023/08/01 00:58:54;;;;;;;6.95;4.05;;;14.00;99.90;;;;;;6226746;23;20004;-66
2023/08/01 01:01:19;;;;;;;10.63;3.90;;;14.10;99.90;;;;;;6227577;23;20008;-66
2023/08/01 01:03:45;;;;;;;11.82;4.35;;;14.10;99.90;;;;;;6224421;23;20008;-66
2023/08/01 01:06:22;;;;;;;8.98;4.05;;;14.10;99.90;;;;;;6195322;23;20077;-66
2023/08/01 01:08:48;;;;;;;10.70;3.85;;;14.10;99.90;;;;;;6228646;23;20978;-66
2023/08/01 01:11:13;;;;;;;10.77;3.80;;;14.10;99.90;;;;;;6200652;23;20095;-66
2023/08/01 01:13:40;;;;;;;10.68;3.90;;;14.10;99.90;;;;;;6200706;23;20062;-66
2023/08/01 01:16:05;;;;;;;11.13;4.25;;;14.10;99.90;;;;;;6226684;23;20012;-66
2023/08/01 01:18:31;;;;;;;10.80;3.75;;;14.10;99.90;;;;;;6228003;23;20105;-66
2023/08/01 01:20:57;;;;;;;9.07;3.92;;;14.20;99.90;;;;;;6224493;23;20432;-67
2023/08/01 01:23:24;;;;;;;11.52;3.90;;;14.20;99.90;;;;;;6226839;23;20391;-66
2023/08/01 01:25:51;;;;;;;11.35;4.13;;;14.30;99.90;;;;;;6225025;23;20085;-66
2023/08/01 01:28:18;;;;;;;10.52;4.43;;;14.30;99.90;;;;;;6225359;23;20187;-66
2023/08/01 01:30:45;;;;;;;7.70;3.80;;;14.40;99.90;;;;;;6197237;23;20020;-66
2023/08/01 01:33:12;;;;;;;13.15;4.55;;;14.40;99.90;;;;;;6223685;23;20377;-66
2023/08/01 01:35:37;;;;;;;8.98;4.20;;;14.50;99.90;;;;;;6220384;23;20008;-66
2023/08/01 01:38:04;;;;;;;14.68;4.43;;;14.60;99.90;;;;;;6221091;23;20522;-66
2023/08/01 01:40:33;;;;;;;12.30;3.92;;;14.60;99.90;;;;;;6224963;23;20199;-66
2023/08/01 01:43:00;;;;;;;11.95;4.15;;;14.60;99.90;;;;;;6224828;23;20000;-66
2023/08/01 01:45:26;;;;;;;11.10;4.03;;;14.60;99.90;;;;;;6225398;23;20115;-66
2023/08/01 01:47:52;;;;;;;12.77;3.97;;;14.70;99.90;;;;;;6227299;23;20172;-66
2023/08/01 01:50:18;;;;;;;12.43;4.13;;;14.70;99.90;;;;;;6218468;23;20008;-66
2023/08/01 01:52:44;;;;;;;10.15;3.97;;;14.70;99.90;;;;;;6195434;23;20421;-65
2023/08/01 01:55:10;;;;;;;12.13;4.03;;;14.70;99.90;;;;;;6222766;23;20036;-66
2023/08/01 01:57:36;;;;;;;11.02;3.88;;;14.70;99.90;;;;;;6221739;23;20008;-66
2023/08/01 02:00:06;;;;;;;9.80;4.43;;;14.80;99.90;;;;;;6221918;23;20004;-66
2023/08/01 02:02:31;;;;;;;12.48;3.72;;;14.80;99.90;;;;;;6225078;23;20482;-66
2023/08/01 02:04:57;;;;;;;10.60;3.92;;;14.80;99.90;;;;;;6224484;23;20075;-66
2023/08/01 02:07:23;;;;;;;14.57;4.15;;;14.80;99.90;;;;;;6227048;23;20004;-66
2023/08/01 02:09:48;;;;;;;12.80;4.00;;;14.90;99.90;;;;;;6227701;23;20004;-66
2023/08/01 02:12:14;;;;;;;10.43;3.92;;;14.90;99.90;;;;;;6225719;23;20036;-66
2023/08/01 02:14:40;;;;;;;10.93;3.97;;;14.90;99.90;;;;;;6226370;23;20011;-66
2023/08/01 02:17:07;;;;;;;11.43;4.18;;;14.90;99.90;;;;;;6226176;23;20026;-66
2023/08/01 02:19:33;;;;;;;10.70;3.80;;;14.90;99.90;;;;;;6197524;23;20369;-65
2023/08/01 02:21:59;;;;;;;11.23;3.92;;;14.90;99.90;;;;;;6226176;23;20154;-66
2023/08/01 02:24:24;;;;;;;9.43;3.70;;;14.90;99.90;;;;;;6225780;23;20012;-66
2023/08/01 02:26:50;;;;;;;12.57;3.83;;;14.80;99.90;;;;;;6226804;23;20008;-65
2023/08/01 02:29:16;;;;;;;8.50;3.53;;;14.80;99.90;;;;;;6227164;23;20481;-66
2023/08/01 02:31:42;;;;;;;15.32;4.03;;;14.80;99.90;;;;;;6221052;23;20047;-66
2023/08/01 02:34:08;;;;;;;12.52;3.63;;;14.80;99.90;;;;;;6219540;23;20000;-66
2023/08/01 02:36:33;;;;;;;19.00;3.90;;;14.70;99.90;;;;;;6221556;23;20020;-66
2023/08/01 02:38:59;;;;;;;10.00;3.15;;;14.80;99.90;;;;;;6222899;23;20004;-66
2023/08/01 02:41:25;;;;;;;10.07;3.65;;;14.80;99.90;;;;;;6225986;23;20157;-66
2023/08/01 02:43:50;;;;;;;16.17;4.30;;;14.80;99.90;;;;;;6227894;23;20324;-66
2023/08/01 02:46:16;;;;;;;11.98;3.38;;;14.80;99.90;;;;;;6226317;23;20111;-66
2023/08/01 02:48:41;;;;;;;10.95;3.60;;;14.90;99.90;;;;;;6228208;23;20606;-66
2023/08/01 02:51:09;;;;;;;14.77;3.97;;;14.90;99.90;;;;;;6225501;23;20016;-66
2023/08/01 02:53:35;;;;;;;12.48;3.75;;;14.90;99.90;;;;;;6227592;23;20210;-66
2023/08/01 02:56:01;;;;;;;14.93;3.72;;;14.90;99.90;;;;;;6227193;23;20015;-66
2023/08/01 02:58:27;;;;;;;11.95;3.50;;;14.90;99.90;;;;;;6228413;23;20263;-66
2023/08/01 03:00:52;;;;;;;12.02;3.83;;;14.90;99.90;;;;;;6226038;23;20058;-66
2023/08/01 03:03:18;;;;;;;15.57;3.35;;;14.90;99.90;;;;;;6227211;23;20131;-66
2023/08/01 03:05:43;;;;;;;11.50;3.78;;;15.00;99.90;;;;;;6226058;23;20004;-65
2023/08/01 03:08:09;;;;;;;14.77;3.65;;;15.00;99.90;;;;;;6227786;23;20335;-66
2023/08/01 03:10:35;;;;;;;13.98;3.58;;;15.00;99.90;;;;;;6227024;23;20416;-66
2023/08/01 03:13:00;;;;;;;14.65;3.33;;;15.00;99.90;;;;;;6227761;23;20099;-65
2023/08/01 03:15:27;;;;;;;12.93;3.92;;;15.10;99.90;;;;;;6224840;23;20004;-66
2023/08/01 03:17:52;;;;;;;14.23;3.30;;;15.10;99.90;;;;;;6227396;23;20077;-66
2023/08/01 03:20:18;;;;;;;12.07;3.65;;;15.10;99.90;;;;;;6225941;23;20064;-66
2023/08/01 03:22:44;;;;;;;8.80;3.50;;;15.00;99.90;;;;;;6227761;23;20085;-65
2023/08/01 03:25:09;;;;;;;15.23;3.63;;;15.00;99.90;;;;;;6225818;23;20282;-66
2023/08/01 03:27:36;;;;;;;11.85;3.70;;;15.00;99.90;;;;;;6226426;23;20177;-66
2023/08/01 03:30:02;;;;;;;11.90;3.35;;;15.00;99.90;;;;;;6225690;23;20065;-66
2023/08/01 03:32:28;;;;;;;12.98;3.50;;;15.00;99.90;;;;;;6226764;23;20051;-65
2023/08/01 03:34:53;;;;;;;10.13;3.30;;;15.00;99.90;;;;;;6223584;23;20098;-66
2023/08/01 03:37:19;;;;;;;12.02;3.83;;;15.00;99.90;;;;;;6222044;23;20008;-66
2023/08/01 03:39:45;;;;;;;11.10;3.42;;;15.00;99.90;;;;;;6224403;23;20004;-66
2023/08/01 03:42:10;;;;;;;12.43;3.42;;;15.00;99.90;;;;;;6224875;23;20008;-65
2023/08/01 03:44:36;;;;;;;16.67;3.33;;;15.00;99.90;;;;;;6222440;23;20012;-65
2023/08/01 03:47:02;;;;;;;8.40;3.10;;;15.00;99.90;;;;;;6222924;23;20008;-65
2023/08/01 03:49:28;;;;;;;10.98;3.30;;;15.00;99.90;;;;;;6222536;23;20313;-66
2023/08/01 03:51:53;;;;;;;13.90;3.10;;;15.00;99.90;;;;;;6226734;23;20071;-65
2023/08/01 03:54:19;;;;;;;13.07;3.05;;;15.00;99.90;;;;;;6226503;23;20035;-66
2023/08/01 03:56:45;;;;;;;9.55;3.30;;;15.00;99.90;;;;;;6228154;23;20008;-66
2023/08/01 03:59:12;;;;;;;12.35;3.30;;;15.00;99.90;;;;;;6225901;23;20000;-66
2023/08/01 04:01:38;;;;;;;11.05;2.97;;;14.90;99.90;;;;;;6224143;23;20008;-66
2023/08/01 04:04:04;;;;;;;11.18;2.95;;;14.90;99.90;;;;;;6222686;23;20030;-65
2023/08/01 04:06:29;;;;;;;9.68;2.78;;;14.90;99.90;;;;;;6197224;23;20008;-66
2023/08/01 04:08:56;;;;;;;11.43;3.20;;;14.80;99.90;;;;;;6222913;23;20506;-65
2023/08/01 04:11:22;;;;;;;14.30;3.42;;;14.80;99.90;;;;;;6221177;23;20019;-66
2023/08/01 04:13:48;;;;;;;12.55;3.10;;;14.70;99.90;;;;;;6221767;23;20007;-66
2023/08/01 04:16:13;;;;;;;11.20;2.90;;;14.70;99.90;;;;;;6220983;23;20015;-65
2023/08/01 04:18:39;;;;;;;15.10;3.67;;;14.70;99.90;;;;;;6218898;23;20079;-66
2023/08/01 04:21:06;;;;;;;11.55;2.97;;;14.70;99.90;;;;;;6218070;23;20000;-65
2023/08/01 04:23:32;;;;;;;9.48;2.78;;;14.80;99.90;;;;;;6221751;23;20040;-66
2023/08/01 04:25:59;;;;;;;12.90;3.58;;;14.80;99.90;;;;;;6222658;23;20129;-66
2023/08/01 04:28:25;;;;;;;9.77;3.08;;;14.90;99.90;;;;;;6224516;23;20324;-66
2023/08/01 04:30:51;;;;;;;11.20;3.10;;;14.80;99.90;;;;;;6224568;23;20012;-65
2023/08/01 04:33:16;;;;;;;14.30;3.22;;;14.90;99.90;;;;;;6223018;23;20367;-66
2023/08/01 04:35:42;;;;;;;10.63;3.20;;;14.90;99.90;;;;;;6220847;23;20099;-66
2023/08/01 04:38:08;;;;;;;16.42;3.08;;;14.90;99.90;;;;;;6226892;23;20087;-66
2023/08/01 04:40:34;;;;;;;13.18;3.17;;;14.90;99.90;;;;;;6228633;23;20000;-66
2023/08/01 04:43:01;;;;;;;10.75;3.13;;;14.90;99.90;;;;;;6228520;23;20395;-66
2023/08/01 04:45:27;;;;;;;9.75;2.97;;;14.90;99.90;;;;;;6228003;23;20385;-66
2023/08/01 04:47:53;;;;;;;9.35;2.50;;;14.90;99.90;;;;;;6228966;23;20011;-66
2023/08/01 04:50:18;;;;;;;13.50;3.42;;;14.80;99.90;;;;;;6226010;23;20019;-66
2023/08/01 04:52:44;;;;;;;11.15;2.78;;;14.70;99.90;;;;;;6228751;23;20061;-66
2023/08/01 04:55:09;;;;;;;11.10;2.78;;;14.70;99.90;;;;;;6227456;23;20040;-66
2023/08/01 04:57:35;;;;;;;9.85;2.80;;;14.60;99.90;;;;;;6201650;23;20329;-66
2023/08/01 05:00:01;;;;;;;11.55;2.92;;;14.50;99.90;;;;;;6200988;23;20004;-66
2023/08/01 05:02:27;;;;;;;9.43;2.55;;;14.40;99.90;;;;;;6221360;23;20000;-66
2023/08/01 05:04:53;;;;;;;10.35;2.83;;;14.40;99.90;;;;;;6221914;23;20000;-66
2023/08/01 05:07:18;;;;;;;12.65;2.88;;;14.40;99.90;;;;;;6224448;23;20015;-67
2023/08/01 05:09:44;;;;;;;13.35;3.08;;;14.40;99.90;;;;;;6223488;23;20004;-66
2023/08/01 05:12:09;;;;;;;8.02;2.85;;;14.40;99.90;;;;;;6226140;23;20023;-66
2023/08/01 05:14:35;;;;;;;14.90;3.03;;;14.60;99.90;;;;;;6223059;23;20009;-66
2023/08/01 05:17:01;;;;;;;13.65;2.95;;;14.70;99.90;;;;;;6222791;23;20075;-66
2023/08/01 05:19:26;;;;;;;10.43;3.05;;;14.90;99.90;;;;;;6223041;23;20022;-65
2023/08/01 05:21:52;;;;;;;11.98;2.78;;;15.10;99.90;;;;;;6223220;23;20072;-66
2023/08/01 05:24:17;;;;;;;8.05;2.35;;;15.30;99.90;;;;;;6225230;23;20450;-66
2023/08/01 05:26:43;;;;;;;9.27;2.80;;;15.40;99.90;;;;;;6196071;23;20546;-66
2023/08/01 05:29:09;;;;;;;10.70;2.55;;;15.40;99.90;;;;;;6222068;23;20312;-66
2023/08/01 05:31:34;;;;;;;11.05;2.53;;;15.50;99.90;;;;;;6221775;23;20016;-65
2023/08/01 05:34:00;;;;;;;7.13;2.30;;;15.60;99.90;;;;;;6223435;23;20010;-65
2023/08/01 05:36:25;;;;;;;9.75;2.47;;;15.70;99.90;;;;;;6222375;23;20012;-65
2023/08/01 05:38:51;;;;;;;8.38;2.60;;;15.70;99.90;;;;;;6221494;23;20004;-66
2023/08/01 05:41:17;;;;;;;9.63;2.65;;;15.60;99.90;;;;;;6221223;23;20091;-66
2023/08/01 05:43:42;;;;;;;15.13;3.00;;;15.50;99.90;;;;;;6223181;23;20456;-66
2023/08/01 05:46:08;;;;;;;8.02;2.30;;;15.40;99.90;;;;;;6221385;23;20432;-66
2023/08/01 05:48:33;;;;;;;10.80;2.78;;;15.40;99.90;;;;;;6222345;23;20020;-66
2023/08/01 05:50:59;;;;;;;8.93;2.50;;;15.40;99.90;;;;;;6219722;23;20095;-65
2023/08/01 05:53:25;;;;;;;8.73;2.15;;;15.30;99.90;;;;;;6193961;23;20397;-65
2023/08/01 05:55:50;;;;;;;10.30;2.58;;;15.30;99.90;;;;;;6221758;23;20062;-66
2023/08/01 05:58:16;;;;;;;10.15;2.90;;;15.40;99.90;;;;;;6222917;23;20012;-66
2023/08/01 06:00:42;;;;;;;9.93;2.25;;;15.40;99.90;;;;;;6193885;23;20015;-66
2023/08/01 06:03:07;;;;;;;12.52;3.00;;;15.40;99.90;;;;;;6222011;23;20685;-66
2023/08/01 06:05:33;;;;;;;8.80;2.92;;;15.40;99.90;;;;;;6220067;23;20452;-66
2023/08/01 06:07:58;;;;;;;9.40;2.90;;;15.40;99.90;;;;;;6221917;23;20400;-66
2023/08/01 06:10:24;;;;;;;9.23;3.20;;;15.50;99.90;;;;;;6221121;23;20405;-66
2023/08/01 06:12:50;;;;;;;12.05;3.17;;;15.50;99.90;;;;;;6223679;23;20012;-66
2023/08/01 06:15:16;;;;;;;12.98;5.95;;;15.50;99.90;;;;;;6224202;23;20039;-65
2023/08/01 06:17:41;;;;;;;9.23;2.50;;;15.60;99.90;;;;;;6224248;23;20361;-66
2023/08/01 06:20:07;;;;;;;10.48;2.70;;;15.70;99.90;;;;;;6218683;23;20067;-65
2023/08/01 06:22:33;;;;;;;9.52;2.58;;;15.70;99.90;;;;;;6222381;23;20451;-66
2023/08/01 06:24:58;;;;;;;213.20;129.60;;;15.70;99.90;;;;;;6220762;23;20000;-65
2023/08/01 06:27:25;;;;;;;17.17;9.00;;;15.70;99.90;;;;;;6195110;23;20016;-66
2023/08/01 06:29:50;;;;;;;10.70;2.88;;;15.90;99.90;;;;;;6221264;23;20015;-65
2023/08/01 06:32:16;;;;;;;6.07;2.03;;;15.90;99.90;;;;;;6195089;23;20259;-66
2023/08/01 06:34:41;;;;;;;8.77;2.45;;;16.00;99.90;;;;;;6225533;23;20035;-66
2023/08/01 06:37:07;;;;;;;8.65;2.38;;;16.00;99.90;;;;;;6226334;23;20075;-66
2023/08/01 06:39:33;;;;;;;84.93;50.63;;;16.10;99.90;;;;;;6226137;23;20247;-66
2023/08/01 06:41:58;;;;;;;8.07;2.35;;;16.20;99.90;;;;;;6226473;23;20004;-66
2023/08/01 06:44:24;;;;;;;7.05;2.40;;;16.30;99.90;;;;;;6227586;23;20004;-66
2023/08/01 06:46:49;;;;;;;11.20;2.30;;;16.50;99.90;;;;;;6225807;23;20204;-65
2023/08/01 06:49:15;;;;;;;13.27;2.65;;;16.50;99.90;;;;;;6225173;23;20004;-66
2023/08/01 06:51:42;;;;;;;6.00;2.00;;;16.70;99.90;;;;;;6226176;23;20016;-66
2023/08/01 06:54:08;;;;;;;13.10;3.08;;;16.80;99.90;;;;;;6225831;23;20000;-65
2023/08/01 06:56:33;;;;;;;15.48;6.38;;;16.80;99.90;;;;;;6225594;23;20753;-65
2023/08/01 06:58:59;;;;;;;10.32;2.10;;;17.10;99.90;;;;;;6226285;23;20004;-65
2023/08/01 07:01:25;;;;;;;11.35;1.83;;;17.60;99.90;;;;;;6225845;23;20107;-66
2023/08/01 07:03:53;;;;;;;7.55;2.00;;;18.00;99.90;;;;;;6219888;23;20069;-66
2023/08/01 07:06:19;;;;;;;7.63;2.40;;;18.60;99.90;;;;;;6218280;23;20083;-66
2023/08/01 07:08:45;;;;;;;9.75;1.80;;;19.00;99.90;;;;;;6219758;23;20098;-66
2023/08/01 07:11:10;;;;;;;10.07;1.95;;;19.30;99.90;;;;;;6219921;23;20038;-66
2023/08/01 07:13:36;;;;;;;8.30;2.17;;;19.40;99.90;;;;;;6218611;23;20007;-66
2023/08/01 07:16:02;;;;;;;8.55;2.13;;;19.60;99.90;;;;;;6221010;23;20012;-66
2023/08/01 07:18:27;;;;;;;8.23;1.50;;;19.70;99.90;;;;;;6221412;23;20008;-66
2023/08/01 07:21:03;;;;;;;10.75;2.05;;;19.80;99.90;;;;;;6219699;23;20012;-66
2023/08/01 07:23:29;;;;;;;7.47;2.15;;;19.70;99.90;;;;;;6216614;23;19996;-66
2023/08/01 07:25:54;;;;;;;10.40;1.98;;;19.70;99.90;;;;;;6222192;23;20066;-66
2023/08/01 07:28:20;;;;;;;6.32;2.08;;;19.80;99.90;;;;;;6221400;23;20091;-66
2023/08/01 07:30:45;;;;;;;5.85;1.60;;;19.80;99.90;;;;;;6225523;23;20055;-66
2023/08/01 07:33:11;;;;;;;9.10;1.75;;;20.10;99.90;;;;;;6226221;23;20335;-66
2023/08/01 07:35:37;;;;;;;7.65;1.63;;;20.40;99.90;;;;;;6225453;23;20000;-66
2023/08/01 07:38:02;;;;;;;6.40;1.80;;;20.50;99.90;;;;;;6223823;23;20012;-66
2023/08/01 07:40:28;;;;;;;7.97;1.90;;;20.90;99.90;;;;;;6222689;23;20000;-65
2023/08/01 07:42:53;;;;;;;10.85;1.80;;;21.30;99.90;;;;;;6220561;23;20410;-65
2023/08/01 07:45:20;;;;;;;7.00;1.42;;;21.60;99.90;;;;;;6220576;23;20004;-65
2023/08/01 07:47:45;;;;;;;8.25;1.75;;;22.10;99.90;;;;;;6223685;23;20034;-65
2023/08/01 07:50:11;;;;;;;7.13;1.88;;;22.20;99.90;;;;;;6221740;23;20012;-65
2023/08/01 07:52:36;;;;;;;5.63;1.85;;;22.40;99.90;;;;;;6222315;23;20012;-64
2023/08/01 07:55:02;;;;;;;6.18;1.70;;;22.50;99.90;;;;;;6219802;23;20007;-65
2023/08/01 07:57:28;;;;;;;3.30;1.30;;;22.50;99.90;;;;;;6220221;23;20433;-64
2023/08/01 07:59:54;;;;;;;5.55;1.38;;;22.90;99.90;;;;;;6222422;23;20424;-64
2023/08/01 08:02:20;;;;;;;4.35;1.40;;;24.10;99.90;;;;;;6222328;23;20432;-64
2023/08/01 08:04:45;;;;;;;8.23;1.95;;;25.40;99.90;;;;;;6218999;23;20016;-65
2023/08/01 08:07:11;;;;;;;5.47;1.42;;;26.10;99.60;;;;;;6221253;23;20004;-64
2023/08/01 08:09:37;;;;;;;6.25;1.45;;;28.30;95.80;;;;;;6198216;23;20004;-64
2023/08/01 08:12:03;;;;;;;4.28;1.40;;;28.90;82.80;;;;;;6226570;23;20016;-64
2023/08/01 08:14:29;;;;;;;4.97;1.27;;;28.30;80.80;;;;;;6222014;23;20004;-65
2023/08/01 08:16:55;;;;;;;6.68;1.60;;;28.70;75.50;;;;;;6218800;23;20012;-65
2023/08/01 08:19:23;;;;;;;4.53;1.38;;;28.30;78.30;;;;;;6219822;23;20416;-65
2023/08/01 08:21:49;;;;;;;4.18;1.38;;;28.20;76.70;;;;;;6221867;23;20420;-65
2023/08/01 08:24:15;;;;;;;6.15;1.30;;;28.30;78.60;;;;;;6217427;23;20000;-66
2023/08/01 08:26:40;;;;;;;4.53;1.20;;;27.40;83.90;;;;;;6217058;23;20564;-65
2023/08/01 08:29:06;;;;;;;6.35;1.33;;;27.90;80.10;;;;;;6196005;23;20077;-65
2023/08/01 08:31:32;;;;;;;5.05;1.58;;;30.20;75.50;;;;;;6226883;23;20047;-65
2023/08/01 08:33:57;;;;;;;6.43;1.20;;;32.60;67.40;;;;;;6216478;23;20004;-64
2023/08/01 08:36:23;;;;;;;2.53;0.90;;;34.70;58.10;;;;;;6221413;23;20004;-66
2023/08/01 08:38:50;;;;;;;3.00;0.90;;;36.10;52.00;;;;;;6225996;23;20845;-64
2023/08/01 08:41:20;;;;;;;3.85;1.63;;;37.30;49.30;;;;;;6227585;23;20005;-67
2023/08/01 08:43:47;;;;;;;;;;;38.50;45.70;;;;;;6228784;23;20016;-65
2023/08/01 08:46:16;;;;;;;5.05;1.10;;;38.20;43.30;;;;;;6224413;23;19908;-68
2023/08/01 08:48:42;;;;;;;4.35;1.00;;;37.70;44.50;;;;;;6223585;23;20023;-65
2023/08/01 08:51:08;;;;;;;6.63;1.17;;;37.00;43.40;;;;;;6223325;23;20008;-65
2023/08/01 08:53:35;;;;;;;4.90;1.10;;;36.80;43.90;;;;;;6224813;23;20463;-65
2023/08/01 08:56:02;;;;;;;5.40;1.10;;;36.00;44.00;;;;;;6223170;23;20390;-64
2023/08/01 08:58:32;;;;;;;3.15;1.15;;;35.90;43.60;;;;;;6223140;23;20012;-65
2023/08/01 09:01:01;;;;;;;5.90;1.30;;;35.40;46.00;;;;;;6223843;23;20011;-64
2023/08/01 09:03:28;;;;;;;3.92;1.02;;;33.80;46.40;;;;;;6223329;23;20000;-64
2023/08/01 09:06:04;;;;;;;3.15;0.93;;;31.20;49.30;;;;;;6221083;23;20008;-64
2023/08/01 09:08:34;;;;;;;6.13;1.55;;;29.00;55.60;;;;;;6219059;23;20240;-64
2023/08/01 09:11:00;;;;;;;4.75;1.08;;;28.00;56.30;;;;;;6218032;23;20012;-64
2023/08/01 09:13:26;;;;;;;7.32;1.23;;;28.20;58.40;;;;;;6218652;23;20019;-64
2023/08/01 09:15:52;;;;;;;4.88;1.20;;;28.90;58.00;;;;;;6222442;23;20237;-64
2023/08/01 09:18:18;;;;;;;3.75;1.33;;;29.10;58.30;;;;;;6226796;23;20039;-64
2023/08/01 09:20:48;;;;;;;4.35;1.08;;;28.80;58.40;;;;;;6223072;23;20031;-64
2023/08/01 09:23:15;;;;;;;4.82;1.10;;;28.10;58.50;;;;;;6220923;23;20012;-64
2023/08/01 09:25:41;;;;;;;4.93;1.25;;;26.80;63.50;;;;;;6219616;23;20544;-64
2023/08/01 09:28:23;;;;;;;3.03;1.20;;;27.10;69.10;;;;;;6221004;23;20106;-64
2023/08/01 09:30:54;;;;;;;3.70;1.05;;;28.80;62.30;;;;;;6216989;23;20095;-64
2023/08/01 09:33:19;;;;;;;3.40;1.02;;;31.50;56.90;;;;;;6218523;23;20095;-64
2023/08/01 09:35:45;;;;;;;4.88;1.33;;;34.70;55.50;;;;;;6213593;23;20079;-64
2023/08/01 09:38:15;;;;;;;4.85;1.02;;;36.00;45.10;;;;;;6218147;23;20011;-65
2023/08/01 09:40:42;;;;;;;4.07;0.90;;;36.10;45.90;;;;;;6221056;23;20079;-64
2023/08/01 09:43:08;;;;;;;3.78;1.15;;;34.20;45.10;;;;;;6225180;23;20700;-64
2023/08/01 09:45:34;;;;;;;4.63;1.20;;;33.20;46.80;;;;;;6223323;23;20000;-64
2023/08/01 09:48:01;;;;;;;2.92;1.08;;;33.00;48.60;;;;;;6221125;23;20089;-64
2023/08/01 09:50:27;;;;;;;4.00;1.00;;;32.30;48.00;;;;;;6218313;23;20008;-64
2023/08/01 09:52:53;;;;;;;6.07;1.05;;;32.60;49.50;;;;;;6221533;23;20097;-63
2023/08/01 09:55:32;;;;;;;1.95;0.88;;;33.70;51.40;;;;;;6219304;23;20011;-64
2023/08/01 09:57:59;;;;;;;3.65;1.02;;;33.70;45.10;;;;;;6221018;23;20015;-64
2023/08/01 10:00:29;;;;;;;4.15;1.00;;;32.90;45.50;;;;;;6222231;23;20472;-64
2023/08/01 10:03:02;;;;;;;4.03;1.20;;;31.70;48.70;;;;;;6224908;23;20004;-64
2023/08/01 10:05:31;;;;;;;4.75;1.15;;;30.50;52.00;;;;;;6222847;23;20008;-64
2023/08/01 10:08:02;;;;;;;2.90;0.85;;;30.60;53.10;;;;;;6226845;23;20131;-64
2023/08/01 10:10:28;;;;;;;3.35;0.98;;;31.10;52.80;;;;;;6222238;23;20015;-64
2023/08/01 10:12:56;;;;;;;4.13;1.25;;;30.60;49.80;;;;;;6222071;23;20023;-64
2023/08/01 10:15:22;;;;;;;5.50;1.40;;;29.90;52.00;;;;;;6215245;23;20460;-64
2023/08/01 10:17:48;;;;;;;5.80;1.10;;;29.10;54.10;;;;;;6193111;23;20019;-64
2023/08/01 10:20:15;;;;;;;6.32;1.40;;;28.30;55.90;;;;;;6217974;23;20317;-64
2023/08/01 10:22:41;;;;;;;3.45;1.10;;;27.90;58.00;;;;;;6221393;23;20523;-64
2023/08/01 10:25:09;;;;;;;6.15;1.35;;;27.90;60.40;;;;;;6195215;23;20440;-64
2023/08/01 10:27:36;;;;;;;2.28;0.90;;;28.70;58.60;;;;;;6221378;23;20012;-64
2023/08/01 10:30:03;;;;;;;6.78;1.35;;;31.10;56.20;;;;;;6196567;23;20019;-63
2023/08/01 10:32:34;;;;;;;3.53;1.08;;;31.80;50.80;;;;;;6222066;23;20070;-63
2023/08/01 10:35:00;;;;;;;4.55;1.50;;;33.60;47.10;;;;;;6222472;23;20042;-64
2023/08/01 10:37:38;;;;;;;4.72;1.50;;;35.50;47.10;;;;;;6227782;23;20711;-63
2023/08/01 10:40:04;;;;;;;4.32;1.13;;;37.10;43.40;;;;;;6227722;23;20035;-64
2023/08/01 10:42:59;;;;;;;5.18;1.38;;;39.40;43.00;;;;;;6228286;23;20008;-64
2023/08/01 10:45:27;;;;;;;4.45;1.40;;;40.40;39.90;;;;;;6199634;23;20044;-64
2023/08/01 10:47:52;;;;;;;2.95;1.10;;;40.60;40.20;;;;;;6226931;23;20011;-64
2023/08/01 10:50:19;;;;;;;2.38;1.10;;;41.50;41.90;;;;;;6224919;23;20080;-64
2023/08/01 10:52:46;;;;;;;2.75;1.08;;;40.70;36.90;;;;;;6228010;23;20290;-64
2023/08/01 10:55:12;;;;;;;3.22;1.10;;;39.40;38.40;;;;;;6227467;23;20083;-64
2023/08/01 10:57:46;;;;;;;2.88;1.05;;;37.20;39.50;;;;;;6226898;23;20089;-64
2023/08/01 11:00:17;;;;;;;3.55;1.17;;;35.70;41.90;;;;;;6225762;23;20042;-65
2023/08/01 11:02:48;;;;;;;3.70;1.27;;;36.90;45.70;;;;;;6225523;23;20007;-64
2023/08/01 11:05:14;;;;;;;3.38;1.02;;;37.90;39.10;;;;;;6224373;23;20107;-64
2023/08/01 11:07:39;;;;;;;3.95;1.00;;;37.80;38.70;;;;;;6230866;22;20020;-91
2023/08/01 11:10:11;;;;;;;3.17;0.90;;;37.10;38.00;;;;;;6198370;23;20000;-89
2023/08/01 11:12:41;;;;;;;4.43;1.35;;;35.50;40.90;;;;;;6201677;23;20023;-89
2023/08/01 11:15:08;;;;;;;;;;;34.40;43.90;;;;;;6203521;23;20343;-90
2023/08/01 11:17:36;;;;;;;3.80;1.30;;;33.20;46.00;;;;;;6202083;23;19934;-91
2023/08/01 11:20:09;;;;;;;6.70;1.20;;;33.00;43.90;;;;;;6229783;23;20075;-91
2023/08/01 11:22:36;;;;;;;4.95;1.10;;;33.10;46.90;;;;;;6200400;23;20095;-90
2023/08/01 11:25:02;;;;;;;5.07;1.20;;;32.90;46.00;;;;;;6201605;23;20101;-91
2023/08/01 11:27:28;;;;;;;3.60;1.38;;;31.80;46.50;;;;;;6232219;23;20008;-89
2023/08/01 11:29:54;;;;;;;3.97;0.90;;;30.70;50.80;;;;;;6202383;23;20012;-91
2023/08/01 11:32:21;;;;;;;4.30;1.42;;;29.30;51.90;;;;;;6202092;23;20016;-90
2023/08/01 11:34:47;;;;;;;6.20;1.70;;;28.10;55.10;;;;;;6202624;23;20432;-89
2023/08/01 11:37:15;;;;;;;4.93;1.17;;;26.80;56.50;;;;;;6230771;23;20019;-90
2023/08/01 11:39:41;;;;;;;6.60;1.65;;;25.80;60.40;;;;;;6204196;23;20385;-89
2023/08/01 11:42:07;;;;;;;5.63;1.63;;;24.80;79.60;;;;;;6232754;23;20034;-89
2023/08/01 11:44:32;;;;;;;6.13;1.65;;;24.40;92.80;;;;;;6204971;23;20096;-89
2023/08/01 11:46:58;;;;;;;8.30;1.70;;;24.20;93.70;;;;;;6232086;23;20056;-88
2023/08/01 11:49:26;;;;;;;7.05;1.75;;;24.70;95.80;;;;;;6206378;23;20055;-89
2023/08/01 11:51:51;;;;;;;6.78;1.58;;;25.50;95.70;;;;;;6206000;23;20032;-90
2023/08/01 11:54:17;;;;;;;10.82;1.77;;;26.60;95.30;;;;;;6206553;23;20795;-91
2023/08/01 11:56:43;;;;;;;6.55;1.70;;;27.50;92.80;;;;;;6234295;23;20360;-89
2023/08/01 11:59:13;;;;;;;7.90;2.00;;;28.00;89.00;;;;;;6204999;23;20016;-90
2023/08/01 12:01:44;;;;;;;6.03;1.55;;;28.80;91.30;;;;;;6231653;23;20040;-89
2023/08/01 12:04:10;;;;;;;6.35;1.77;;;28.60;75.80;;;;;;6204144;23;20455;-89
2023/08/01 12:06:38;;;;;;;5.28;1.35;;;28.30;79.50;;;;;;6233396;23;20004;-90
2023/08/01 12:09:11;;;;;;;3.67;1.60;;;28.50;78.20;;;;;;6233761;23;20000;-90
2023/08/01 12:11:38;;;;;;;9.35;1.77;;;28.30;79.10;;;;;;6205691;23;20027;-90
2023/08/01 12:14:11;;;;;;;5.05;1.58;;;28.40;80.00;;;;;;6203412;23;20012;-90
2023/08/01 12:16:46;;;;;;;5.90;1.60;;;27.90;74.90;;;;;;6232611;23;20005;-90
2023/08/01 12:19:20;;;;;;;5.70;1.52;;;27.30;77.40;;;;;;6232572;23;20392;-89
2023/08/01 12:21:46;;;;;;;5.40;1.48;;;26.90;78.40;;;;;;6231276;23;20008;-90
2023/08/01 12:24:12;;;;;;;6.13;1.48;;;26.50;84.10;;;;;;6200023;23;20008;-89
2023/08/01 12:26:38;;;;;;;7.32;1.83;;;26.50;89.60;;;;;;6229342;23;20069;-89
2023/08/01 12:29:03;;;;;;;5.57;1.50;;;26.10;90.70;;;;;;6230677;23;20081;-91
2023/08/01 12:31:29;;;;;;;8.27;1.60;;;26.20;94.30;;;;;;6206067;23;20016;-90
2023/08/01 12:33:54;;;;;;;9.50;2.45;;;25.90;92.20;;;;;;6232531;23;20008;-90
2023/08/01 12:36:21;;;;;;;11.00;2.70;;;25.30;96.40;;;;;;6233023;23;20008;-90
2023/08/01 12:38:46;;;;;;;11.13;2.75;;;25.00;98.90;;;;;;6232073;23;20004;-90